Buggenhout, Belgium
Current Conditions -  °F | °C
As of 5:20 AM on Friday 31 Oct 2014 (Local Time) from EBAW Reporting Station
Clear Clear  
Wind Chill: 48°   Ceiling: Unl
Heat Index: 48°   Visibility: 5mi
Dew Point: 45°   Wind: 2mph
Humidity: 87%   Direction: NA
Pressure: 30.15"   Gusts: NA
Location:  51.02°N, 4.2°E
Report Text: EBAW 310420Z AUTO VRB02KT 8000 NCD 09/07 Q1021
Loading
Personal Weather Stations






























Interactive Weather Map
Tropical Storm Tracking
New forecast layout! Learn more

10-Day Weather Forecast

Advertisements
Track Severe Weather on mobile